createdAt,value
2023-02-11T00:00:30.845Z,86.02
2023-02-11T00:02:57.631Z,86.02
2023-02-11T00:06:29.593Z,85.63
2023-02-11T00:09:01.548Z,85.90
2023-02-11T00:11:38.384Z,85.86
2023-02-11T00:14:10.238Z,85.83
2023-02-11T00:16:37.046Z,86.16
2023-02-11T00:19:06.246Z,85.91
2023-02-11T00:21:33.875Z,85.90
2023-02-11T00:24:02.212Z,85.97
2023-02-11T00:26:33.948Z,86.09
2023-02-11T00:29:01.539Z,86.12
2023-02-11T00:31:31.783Z,86.53
2023-02-11T00:33:58.514Z,86.08
2023-02-11T00:36:29.643Z,86.51
2023-02-11T00:39:00.432Z,86.22
2023-02-11T00:42:14.410Z,86.21
2023-02-11T00:44:44.861Z,86.57
2023-02-11T00:47:14.777Z,86.75
2023-02-11T00:49:46.171Z,86.42
2023-02-11T00:52:16.730Z,86.64
2023-02-11T00:54:46.507Z,86.65
2023-02-11T00:57:19.902Z,86.53
2023-02-11T01:00:04.837Z,86.49
2023-02-11T01:06:48.105Z,86.70
2023-02-11T01:09:26.313Z,86.37
2023-02-11T01:12:43.752Z,86.84
2023-02-11T01:15:14.453Z,86.81
2023-02-11T01:17:41.102Z,86.84
2023-02-11T01:20:12.644Z,86.71
2023-02-11T01:22:39.696Z,87.23
2023-02-11T01:26:16.927Z,86.72
2023-02-11T01:28:46.381Z,87.39
2023-02-11T01:31:19.246Z,87.31
2023-02-11T01:34:08.457Z,87.13
2023-02-11T01:36:40.627Z,87.39
2023-02-11T01:39:08.645Z,87.33
2023-02-11T01:41:38.412Z,87.30
2023-02-11T01:44:42.378Z,87.08
2023-02-11T01:47:14.931Z,87.25
2023-02-11T01:50:06.883Z,87.20
2023-02-11T01:52:36.790Z,87.61
2023-02-11T01:55:32.111Z,87.43
2023-02-11T01:58:04.875Z,86.94
2023-02-11T02:00:39.007Z,87.36
2023-02-11T02:03:13.187Z,87.80
2023-02-11T02:07:04.066Z,87.41
2023-02-11T02:09:38.208Z,87.81
2023-02-11T02:12:05.086Z,87.88
2023-02-11T02:14:32.974Z,87.50
2023-02-11T02:16:59.604Z,87.63
2023-02-11T02:20:14.657Z,87.45
2023-02-11T02:22:42.345Z,87.85
2023-02-11T02:25:45.331Z,88.27
2023-02-11T02:29:17.822Z,87.88
2023-02-11T02:36:28.950Z,88.07
2023-02-11T02:39:38.724Z,88.21
2023-02-11T02:42:06.009Z,88.39
2023-02-11T02:44:33.661Z,88.16
2023-02-11T02:47:00.468Z,88.82
2023-02-11T02:49:31.235Z,88.42
2023-02-11T02:52:47.138Z,88.88
2023-02-11T02:55:59.323Z,88.68
2023-02-11T02:58:54.388Z,88.46
2023-02-11T03:02:06.831Z,88.97
2023-02-11T03:04:58.374Z,88.99
2023-02-11T03:14:56.484Z,89.08
2023-02-11T03:17:48.954Z,89.26
2023-02-11T03:23:45.107Z,89.38
2023-02-11T03:26:37.035Z,89.37
2023-02-11T03:29:27.761Z,89.70
2023-02-11T03:32:33.812Z,89.61
2023-02-11T03:39:09.299Z,90.43
2023-02-11T03:41:49.840Z,90.08
2023-02-11T03:44:17.401Z,90.19
2023-02-11T03:46:52.976Z,89.76
2023-02-11T03:50:04.344Z,90.09
2023-02-11T03:52:34.234Z,90.08
2023-02-11T03:55:03.908Z,90.57
2023-02-11T03:57:30.661Z,90.11
2023-02-11T04:00:53.436Z,90.24
2023-02-11T04:03:21.183Z,90.44
2023-02-11T04:07:11.683Z,90.68
2023-02-11T04:09:38.679Z,91.11
2023-02-11T04:12:05.509Z,90.76
2023-02-11T04:14:32.082Z,91.14
2023-02-11T04:16:58.684Z,90.80
2023-02-11T04:19:25.383Z,91.09
2023-02-11T04:21:54.269Z,90.77
2023-02-11T04:24:26.969Z,90.81
2023-02-11T04:30:10.345Z,91.13
2023-02-11T04:32:37.176Z,91.07
2023-02-11T04:35:04.214Z,91.31
2023-02-11T04:37:30.900Z,91.04
2023-02-11T04:39:57.662Z,90.70
2023-02-11T04:42:24.577Z,90.79
2023-02-11T04:45:07.863Z,91.14
2023-02-11T04:47:34.839Z,91.69
2023-02-11T04:50:01.567Z,91.09
2023-02-11T04:52:28.197Z,91.09
2023-02-11T04:55:04.493Z,91.10
2023-02-11T04:57:32.092Z,91.19
2023-02-11T04:59:58.698Z,91.23
2023-02-11T05:02:27.721Z,91.10
2023-02-11T05:05:08.758Z,91.23
2023-02-11T05:07:39.516Z,90.98
2023-02-11T05:10:09.195Z,91.11
2023-02-11T05:12:38.979Z,91.78
2023-02-11T05:15:05.980Z,91.39
2023-02-11T05:17:32.725Z,91.58
2023-02-11T05:19:59.486Z,91.59
2023-02-11T05:25:38.357Z,91.63
2023-02-11T05:28:08.057Z,91.63
2023-02-11T05:30:34.963Z,91.70
2023-02-11T05:33:17.159Z,91.55
2023-02-11T05:35:46.756Z,91.56
2023-02-11T05:38:18.666Z,91.41
2023-02-11T05:41:32.271Z,91.98
2023-02-11T05:44:17.385Z,91.94
2023-02-11T05:47:09.009Z,92.03
2023-02-11T05:49:35.786Z,91.96
2023-02-11T05:52:06.384Z,92.31
2023-02-11T05:54:56.867Z,91.90
2023-02-11T05:57:49.023Z,91.73
2023-02-11T06:00:30.673Z,92.04
2023-02-11T06:03:32.415Z,91.99
2023-02-11T06:06:12.513Z,91.87
2023-02-11T06:08:39.595Z,92.05
2023-02-11T06:11:06.329Z,92.11
2023-02-11T06:17:07.177Z,92.35
2023-02-11T06:19:54.533Z,92.13
2023-02-11T06:25:09.171Z,92.25
2023-02-11T06:27:38.210Z,92.27
2023-02-11T06:30:06.390Z,92.26
2023-02-11T06:32:49.041Z,92.34
2023-02-11T06:35:53.158Z,92.31
2023-02-11T06:39:18.901Z,92.21
2023-02-11T06:42:07.924Z,92.51
2023-02-11T06:44:46.750Z,92.29
2023-02-11T06:47:13.673Z,92.21
2023-02-11T06:49:41.520Z,92.12
2023-02-11T06:52:49.365Z,92.47
2023-02-11T06:55:16.950Z,92.36
2023-02-11T06:57:43.615Z,92.53
2023-02-11T07:00:10.730Z,92.54
2023-02-11T07:02:42.150Z,92.57
2023-02-11T07:05:11.682Z,92.58
2023-02-11T07:08:05.177Z,92.80
2023-02-11T07:10:38.208Z,92.82
2023-02-11T07:13:04.849Z,92.90
2023-02-11T07:15:32.618Z,92.74
2023-02-11T07:18:01.535Z,92.60
2023-02-11T07:20:44.761Z,92.99
2023-02-11T07:23:19.982Z,92.78
2023-02-11T07:25:51.053Z,93.09
2023-02-11T07:28:17.931Z,93.08
2023-02-11T07:30:44.980Z,93.29
2023-02-11T07:33:11.578Z,93.08
2023-02-11T07:35:41.007Z,93.36
2023-02-11T07:38:43.972Z,92.95
2023-02-11T07:41:23.531Z,92.91
2023-02-11T07:45:06.020Z,93.00
2023-02-11T07:48:39.982Z,93.05
2023-02-11T07:51:55.182Z,92.84
2023-02-11T08:01:32.807Z,92.73
2023-02-11T08:11:51.599Z,93.01
2023-02-11T08:14:21.321Z,92.92
2023-02-11T08:16:54.624Z,92.75
2023-02-11T08:19:35.927Z,92.56
2023-02-11T08:22:52.339Z,92.38
2023-02-11T08:25:18.860Z,92.35
2023-02-11T08:27:45.363Z,92.78
2023-02-11T08:30:12.682Z,92.39
2023-02-11T08:32:39.719Z,92.62
2023-02-11T08:35:08.108Z,92.34
2023-02-11T08:37:34.582Z,92.47
2023-02-11T08:40:01.146Z,92.57
2023-02-11T08:42:27.645Z,92.47
2023-02-11T08:44:54.131Z,92.88
2023-02-11T08:47:25.301Z,92.08
2023-02-11T08:49:51.794Z,92.44
2023-02-11T08:55:27.890Z,92.69
2023-02-11T08:57:54.692Z,92.03
2023-02-11T09:01:15.266Z,92.04
2023-02-11T09:03:52.953Z,91.88
2023-02-11T09:06:22.561Z,91.74
2023-02-11T09:08:56.383Z,91.43
2023-02-11T09:17:01.439Z,91.54
2023-02-11T09:19:34.292Z,90.77
2023-02-11T09:22:25.992Z,91.52
2023-02-11T09:24:59.999Z,90.89
2023-02-11T09:27:53.749Z,90.41
2023-02-11T09:30:20.857Z,90.23
2023-02-11T09:32:56.950Z,90.17
2023-02-11T09:35:37.942Z,90.72
2023-02-11T09:38:07.640Z,89.82
2023-02-11T09:40:34.362Z,90.21
2023-02-11T09:43:51.715Z,90.12
2023-02-11T09:47:08.701Z,90.02
2023-02-11T09:50:47.202Z,89.95
2023-02-11T09:53:16.122Z,89.75
2023-02-11T09:56:05.236Z,89.55
2023-02-11T09:58:41.305Z,89.23
2023-02-11T10:05:57.113Z,88.18
2023-02-11T10:12:04.457Z,87.22
2023-02-11T10:14:53.813Z,87.18
2023-02-11T10:17:39.556Z,85.85
2023-02-11T10:20:27.705Z,86.35
2023-02-11T10:23:00.865Z,85.70
2023-02-11T10:26:05.358Z,83.44
2023-02-11T10:28:36.779Z,82.23
2023-02-11T10:31:27.015Z,80.93
2023-02-11T10:34:02.552Z,79.34
2023-02-11T10:36:34.401Z,78.51
2023-02-11T10:39:28.999Z,78.56
2023-02-11T10:42:01.822Z,78.32
2023-02-11T10:44:36.053Z,78.40
2023-02-11T10:47:32.767Z,79.65
2023-02-11T10:50:03.540Z,79.62
2023-02-11T10:52:30.798Z,79.97
2023-02-11T10:55:01.252Z,80.25
2023-02-11T10:57:36.358Z,80.04
2023-02-11T11:00:20.042Z,80.65
2023-02-11T11:03:00.069Z,80.86
2023-02-11T11:08:51.675Z,79.14
2023-02-11T11:11:21.036Z,78.55
2023-02-11T11:13:53.476Z,78.10
2023-02-11T11:16:51.832Z,77.44
2023-02-11T11:19:25.891Z,75.60
2023-02-11T11:21:54.732Z,76.09
2023-02-11T11:24:39.181Z,75.17
2023-02-11T11:27:06.602Z,74.83
2023-02-11T11:29:38.987Z,75.11
2023-02-11T11:32:15.075Z,75.14
2023-02-11T11:34:43.774Z,74.43
2023-02-11T11:37:20.173Z,75.34
2023-02-11T11:40:00.334Z,76.11
2023-02-11T11:42:35.542Z,75.79
2023-02-11T11:45:15.057Z,75.54
2023-02-11T11:48:05.076Z,75.60
2023-02-11T11:50:53.427Z,75.31
2023-02-11T11:53:27.232Z,75.11
2023-02-11T11:56:01.791Z,74.37
2023-02-11T11:58:36.069Z,75.01
2023-02-11T12:01:15.185Z,74.90
2023-02-11T12:04:15.549Z,74.80
2023-02-11T12:07:09.309Z,75.47
2023-02-11T12:09:49.160Z,75.45
2023-02-11T12:12:27.020Z,75.27
2023-02-11T12:15:09.080Z,75.52
2023-02-11T12:17:57.175Z,75.30
2023-02-11T12:20:50.181Z,75.47
2023-02-11T12:23:57.177Z,75.57
2023-02-11T12:26:31.715Z,75.35
2023-02-11T12:29:08.407Z,75.29
2023-02-11T12:31:55.916Z,75.57
2023-02-11T12:35:06.623Z,75.21
2023-02-11T12:38:08.243Z,75.20
2023-02-11T12:40:50.448Z,74.86
2023-02-11T12:43:23.036Z,74.85
2023-02-11T12:46:15.257Z,75.04
2023-02-11T12:49:09.546Z,74.54
2023-02-11T12:51:54.177Z,74.89
2023-02-11T12:54:23.414Z,73.98
2023-02-11T12:57:11.193Z,73.65
2023-02-11T13:00:06.486Z,73.13
2023-02-11T13:02:54.550Z,73.29
2023-02-11T13:05:20.985Z,73.51
2023-02-11T13:07:50.466Z,73.12
2023-02-11T13:10:24.581Z,73.78
2023-02-11T13:13:11.752Z,73.48
2023-02-11T13:15:39.501Z,72.74
2023-02-11T13:18:30.669Z,72.65
2023-02-11T13:21:08.484Z,72.23
2023-02-11T13:23:47.190Z,71.61
2023-02-11T13:26:23.370Z,71.15
2023-02-11T13:29:13.084Z,71.64
2023-02-11T13:31:40.027Z,71.52
2023-02-11T13:34:24.840Z,71.38
2023-02-11T13:36:56.022Z,71.88
2023-02-11T13:39:23.263Z,71.78
2023-02-11T13:41:52.840Z,71.53
2023-02-11T13:44:25.092Z,71.70
2023-02-11T13:47:01.367Z,72.46
2023-02-11T13:49:33.247Z,73.53
2023-02-11T13:52:05.442Z,73.00
2023-02-11T13:54:37.778Z,72.71
2023-02-11T13:57:19.644Z,72.48
2023-02-11T13:59:47.648Z,72.77
2023-02-11T14:02:35.932Z,72.73
2023-02-11T14:05:24.375Z,73.21
2023-02-11T14:08:28.178Z,72.49
2023-02-11T14:11:24.014Z,72.95
2023-02-11T14:13:50.478Z,72.62
2023-02-11T14:16:36.357Z,72.61
2023-02-11T14:19:04.118Z,73.04
2023-02-11T14:21:50.630Z,73.13
2023-02-11T14:24:17.150Z,73.46
2023-02-11T14:27:46.540Z,73.90
2023-02-11T14:30:59.194Z,73.74
2023-02-11T14:34:08.819Z,73.98
2023-02-11T14:36:51.717Z,73.73
2023-02-11T14:39:56.548Z,74.31
2023-02-11T14:42:27.153Z,73.52
2023-02-11T14:44:58.531Z,73.44
2023-02-11T14:47:52.600Z,73.46
2023-02-11T14:50:34.699Z,73.86
2023-02-11T14:53:06.234Z,73.89
2023-02-11T14:55:40.732Z,73.51
2023-02-11T14:58:07.181Z,73.76
2023-02-11T15:00:33.903Z,74.00
2023-02-11T15:03:00.423Z,73.97
2023-02-11T15:05:30.805Z,73.62
2023-02-11T15:08:03.156Z,74.11
2023-02-11T15:10:42.818Z,74.06
2023-02-11T15:13:19.655Z,73.90
2023-02-11T15:15:48.255Z,74.16
2023-02-11T15:18:24.365Z,75.08
2023-02-11T15:20:52.408Z,74.56
2023-02-11T15:23:26.101Z,74.57
2023-02-11T15:25:56.035Z,74.78
2023-02-11T15:28:26.252Z,74.66
2023-02-11T15:30:59.821Z,74.61
2023-02-11T15:33:29.915Z,74.78
2023-02-11T15:35:57.419Z,75.11
2023-02-11T15:38:24.240Z,75.02
2023-02-11T15:41:02.677Z,75.46
2023-02-11T15:43:45.594Z,75.36
2023-02-11T15:46:16.862Z,75.59
2023-02-11T15:48:46.931Z,75.61
2023-02-11T15:51:34.941Z,75.76
2023-02-11T15:54:20.399Z,76.15
2023-02-11T15:56:53.242Z,76.00
2023-02-11T15:59:25.789Z,76.54
2023-02-11T16:01:54.271Z,76.96
2023-02-11T16:04:25.240Z,76.91
2023-02-11T16:06:54.007Z,76.76
2023-02-11T16:09:35.435Z,76.97
2023-02-11T16:12:23.140Z,76.43
2023-02-11T16:14:49.643Z,77.06
2023-02-11T16:17:19.124Z,77.19
2023-02-11T16:19:48.697Z,77.24
2023-02-11T16:22:30.259Z,77.69
2023-02-11T16:24:59.579Z,77.37
2023-02-11T16:27:40.017Z,77.39
2023-02-11T16:30:24.899Z,77.86
2023-02-11T16:32:55.625Z,77.99
2023-02-11T16:35:22.141Z,78.43
2023-02-11T16:37:48.680Z,78.10
2023-02-11T16:40:18.445Z,78.68
2023-02-11T16:42:50.272Z,78.43
2023-02-11T16:45:16.926Z,78.57
2023-02-11T16:47:43.579Z,78.40
2023-02-11T16:50:19.217Z,78.21
2023-02-11T16:52:47.140Z,78.67
2023-02-11T16:55:15.314Z,78.68
2023-02-11T16:57:42.008Z,79.02
2023-02-11T17:00:11.373Z,78.85
2023-02-11T17:02:38.818Z,79.04
2023-02-11T17:05:08.069Z,79.30
2023-02-11T17:07:35.433Z,78.88
2023-02-11T17:10:02.096Z,78.46
2023-02-11T17:12:28.541Z,79.48
2023-02-11T17:14:55.130Z,79.27
2023-02-11T17:17:23.671Z,79.10
2023-02-11T17:19:51.124Z,79.47
2023-02-11T17:22:18.395Z,79.21
2023-02-11T17:24:44.885Z,79.50
2023-02-11T17:27:12.402Z,79.69
2023-02-11T17:29:40.489Z,79.76
2023-02-11T17:32:07.125Z,80.07
2023-02-11T17:34:34.121Z,79.86
2023-02-11T17:37:08.892Z,80.16
2023-02-11T17:39:36.785Z,79.69
2023-02-11T17:42:04.184Z,80.93
2023-02-11T17:44:39.814Z,80.96
2023-02-11T17:47:06.587Z,81.01
2023-02-11T17:49:36.603Z,80.85
2023-02-11T17:52:06.104Z,80.22
2023-02-11T17:57:40.191Z,80.82
2023-02-11T18:00:56.617Z,80.78
2023-02-11T18:03:23.428Z,81.47
2023-02-11T18:06:06.510Z,80.74
2023-02-11T18:08:47.195Z,81.14
2023-02-11T18:11:25.875Z,80.82
2023-02-11T18:13:58.778Z,81.05
2023-02-11T18:16:44.036Z,81.56
2023-02-11T18:19:11.557Z,81.32
2023-02-11T18:21:44.252Z,81.63
2023-02-11T18:24:13.978Z,81.40
2023-02-11T18:26:41.609Z,82.11
2023-02-11T18:29:08.691Z,81.46
2023-02-11T18:31:35.741Z,81.97
2023-02-11T18:34:05.568Z,81.15
2023-02-11T18:36:32.180Z,81.41
2023-02-11T18:39:05.736Z,81.60
2023-02-11T18:41:32.678Z,81.08
2023-02-11T18:44:49.782Z,81.12
2023-02-11T18:47:16.474Z,82.03
2023-02-11T18:49:50.906Z,82.07
2023-02-11T18:52:22.959Z,81.85
2023-02-11T18:54:55.823Z,81.65
2023-02-11T18:57:23.796Z,82.05
2023-02-11T18:59:56.635Z,81.90
2023-02-11T19:02:26.527Z,81.64
2023-02-11T19:04:59.059Z,81.70
2023-02-11T19:07:28.243Z,81.34
2023-02-11T19:10:01.178Z,81.84
2023-02-11T19:12:33.052Z,82.15
2023-02-11T19:15:00.804Z,81.73
2023-02-11T19:17:29.986Z,82.06
2023-02-11T19:20:05.991Z,81.25
2023-02-11T19:22:32.764Z,82.00
2023-02-11T19:25:01.847Z,82.22
2023-02-11T19:27:30.319Z,81.78
2023-02-11T19:30:06.937Z,82.00
2023-02-11T19:32:41.049Z,81.80
2023-02-11T19:35:16.776Z,81.97
2023-02-11T19:37:48.611Z,81.54
2023-02-11T19:40:19.177Z,81.68
2023-02-11T19:42:46.919Z,81.74
2023-02-11T19:45:13.964Z,82.30
2023-02-11T19:47:40.625Z,82.52
2023-02-11T19:50:33.486Z,82.05
2023-02-11T19:53:02.703Z,82.23
2023-02-11T19:55:37.862Z,81.90
2023-02-11T19:58:21.609Z,82.57
2023-02-11T20:01:05.347Z,82.05
2023-02-11T20:03:31.799Z,81.94
2023-02-11T20:05:58.410Z,81.64
2023-02-11T20:08:53.474Z,81.44
2023-02-11T20:11:20.986Z,81.94
2023-02-11T20:13:49.065Z,82.47
2023-02-11T20:16:18.771Z,81.89
2023-02-11T20:18:52.778Z,82.07
2023-02-11T20:21:24.982Z,82.19
2023-02-11T20:23:52.627Z,82.38
2023-02-11T20:26:23.211Z,82.27
2023-02-11T20:28:51.374Z,82.74
2023-02-11T20:31:20.342Z,82.87
2023-02-11T20:33:47.607Z,82.39
2023-02-11T20:36:29.327Z,83.09
2023-02-11T20:39:02.793Z,82.51
2023-02-11T20:41:34.208Z,82.12
2023-02-11T20:44:06.070Z,82.44
2023-02-11T20:49:29.930Z,82.45
2023-02-11T20:51:58.334Z,82.22
2023-02-11T20:54:25.947Z,82.92
2023-02-11T20:56:53.945Z,82.68
2023-02-11T20:59:21.143Z,83.01
2023-02-11T21:01:55.725Z,82.28
2023-02-11T21:04:30.379Z,82.77
2023-02-11T21:09:40.638Z,83.58
2023-02-11T21:12:30.671Z,82.85
2023-02-11T21:14:58.396Z,83.21
2023-02-11T21:17:26.661Z,83.59
2023-02-11T21:19:53.390Z,82.92
2023-02-11T21:22:35.214Z,83.12
2023-02-11T21:25:01.953Z,82.62
2023-02-11T21:27:33.014Z,83.41
2023-02-11T21:30:35.619Z,83.01
2023-02-11T21:33:19.848Z,83.22
2023-02-11T21:35:58.441Z,83.39
2023-02-11T21:38:25.776Z,83.66
2023-02-11T21:40:52.528Z,82.65
2023-02-11T21:43:19.646Z,82.91
2023-02-11T21:45:49.438Z,83.65
2023-02-11T21:49:24.999Z,83.59
2023-02-11T21:51:57.205Z,84.33
2023-02-11T21:54:25.806Z,83.75
2023-02-11T21:56:52.534Z,83.79
2023-02-11T21:59:21.138Z,84.38
2023-02-11T22:01:47.704Z,84.04
2023-02-11T22:04:14.215Z,83.78
2023-02-11T22:06:40.675Z,83.00
2023-02-11T22:09:09.194Z,83.91
2023-02-11T22:11:36.178Z,84.13
2023-02-11T22:14:02.977Z,83.79
2023-02-11T22:16:30.694Z,83.54
2023-02-11T22:18:58.597Z,84.31
2023-02-11T22:21:26.854Z,84.22
2023-02-11T22:23:55.309Z,84.50
2023-02-11T22:26:29.364Z,83.80
2023-02-11T22:28:56.244Z,84.60
2023-02-11T22:31:28.680Z,84.14
2023-02-11T22:33:56.154Z,84.54
2023-02-11T22:36:28.324Z,84.90
2023-02-11T22:38:55.252Z,84.20
2023-02-11T22:41:22.468Z,83.71
2023-02-11T22:43:52.514Z,84.47
2023-02-11T22:46:20.869Z,84.16
2023-02-11T22:48:48.151Z,84.32
2023-02-11T22:51:19.406Z,84.56
2023-02-11T22:54:04.880Z,84.56
2023-02-11T22:56:32.825Z,84.80
2023-02-11T22:59:01.483Z,83.86
2023-02-11T23:01:29.296Z,83.83
2023-02-11T23:03:56.470Z,84.28
2023-02-11T23:06:23.102Z,84.31
2023-02-11T23:08:49.671Z,84.19
2023-02-11T23:11:19.836Z,85.03
2023-02-11T23:13:50.510Z,84.96
2023-02-11T23:16:21.410Z,84.55
2023-02-11T23:18:48.974Z,84.58
2023-02-11T23:21:27.902Z,84.88
2023-02-11T23:23:59.877Z,84.81
2023-02-11T23:26:26.840Z,84.92
2023-02-11T23:28:53.525Z,84.98
2023-02-11T23:31:23.055Z,85.16
2023-02-11T23:33:50.158Z,84.40
2023-02-11T23:36:18.515Z,85.54
2023-02-11T23:38:50.752Z,85.17
2023-02-11T23:41:20.796Z,85.06
2023-02-11T23:43:53.709Z,85.39
2023-02-11T23:46:22.042Z,85.63
2023-02-11T23:48:49.933Z,84.82
2023-02-11T23:51:21.729Z,85.20
2023-02-11T23:53:52.534Z,84.97
2023-02-11T23:56:22.049Z,84.54
2023-02-11T23:58:52.268Z,84.76
